Terminal Aerodrome Forecast
Issued by NWS Flagstaff, AZ

Home | Current Version | Previous Version | Text Only | Print | Product List | Glossary On
Versions: 1 2 3 4 5 6 7 8 9 10 11 12 13 14 15 16 17 18 19 20 21
000
FTUS45 KFGZ 111200 RRA
TAFFLG
TAF
KFLG 111212Z 1112/1212 VRB06KT P6SM FEW100 SCT200
     FM111800 23008KT P6SM SCT060 SCT120 PROB30 1121/1124 VRB10G20KT
      -TSRA BKN060CB
     FM120200 VRB06KT P6SM SCT150=

USA.gov is the U.S. government's official web portal to all federal, state and local government web resources and services.